createdAt,value
2022-08-13T00:01:00.736Z,15.60
2022-08-13T00:04:00.652Z,15.60
2022-08-13T00:06:25.625Z,15.60
2022-08-13T00:08:57.537Z,15.60
2022-08-13T00:12:00.400Z,15.60
2022-08-13T00:14:36.968Z,15.50
2022-08-13T00:17:08.275Z,15.50
2022-08-13T00:19:39.691Z,15.50
2022-08-13T00:22:30.396Z,15.50
2022-08-13T00:24:56.763Z,15.40
2022-08-13T00:27:24.674Z,15.40
2022-08-13T00:29:56.876Z,15.40
2022-08-13T00:32:31.149Z,15.40
2022-08-13T00:35:00.937Z,15.30
2022-08-13T00:37:29.711Z,15.30
2022-08-13T00:40:18.952Z,15.30
2022-08-13T00:42:50.991Z,15.30
2022-08-13T00:45:20.477Z,15.30
2022-08-13T00:48:07.709Z,15.30
2022-08-13T00:50:37.367Z,15.20
2022-08-13T00:53:05.857Z,15.30
2022-08-13T00:55:32.985Z,15.30
2022-08-13T00:58:01.603Z,15.30
2022-08-13T01:00:29.386Z,15.20
2022-08-13T01:03:00.342Z,15.20
2022-08-13T01:05:46.820Z,15.20
2022-08-13T01:08:20.071Z,15.20
2022-08-13T01:10:55.237Z,15.20
2022-08-13T01:13:26.756Z,15.20
2022-08-13T01:15:57.030Z,15.10
2022-08-13T01:18:32.105Z,15.10
2022-08-13T01:21:14.380Z,15.10
2022-08-13T01:24:02.782Z,15.10
2022-08-13T01:26:33.792Z,15.00
2022-08-13T01:29:10.593Z,15.00
2022-08-13T01:31:41.664Z,15.00
2022-08-13T01:34:13.777Z,15.00
2022-08-13T01:36:55.728Z,15.00
2022-08-13T01:39:29.223Z,15.00
2022-08-13T01:42:03.889Z,15.00
2022-08-13T01:44:34.188Z,14.90
2022-08-13T01:47:24.854Z,14.90
2022-08-13T01:50:11.296Z,14.90
2022-08-13T01:52:42.932Z,14.90
2022-08-13T01:55:10.226Z,14.90
2022-08-13T01:57:51.274Z,14.90
2022-08-13T02:00:26.984Z,14.90
2022-08-13T02:02:55.229Z,14.80
2022-08-13T02:06:19.676Z,14.80
2022-08-13T02:08:12.624Z,14.80
2022-08-13T02:10:42.148Z,14.80
2022-08-13T02:13:16.912Z,14.80
2022-08-13T02:15:51.745Z,14.70
2022-08-13T02:18:22.243Z,14.70
2022-08-13T02:20:52.600Z,14.70
2022-08-13T02:23:53.063Z,14.70
2022-08-13T02:26:11.757Z,14.70
2022-08-13T02:28:40.513Z,14.70
2022-08-13T02:31:26.395Z,14.60
2022-08-13T02:33:58.412Z,14.60
2022-08-13T02:36:26.946Z,14.60
2022-08-13T02:39:01.267Z,14.60
2022-08-13T02:41:47.522Z,14.60
2022-08-13T02:44:23.345Z,14.60
2022-08-13T02:47:00.705Z,14.50
2022-08-13T02:49:30.266Z,14.50
2022-08-13T02:52:12.073Z,14.50
2022-08-13T02:54:54.090Z,14.50
2022-08-13T02:57:23.516Z,14.50
2022-08-13T03:00:05.691Z,14.40
2022-08-13T03:02:41.152Z,14.40
2022-08-13T03:05:10.623Z,14.40
2022-08-13T03:07:51.359Z,14.40
2022-08-13T03:10:24.675Z,14.40
2022-08-13T03:13:27.047Z,14.40
2022-08-13T03:16:02.412Z,14.30
2022-08-13T03:18:34.028Z,14.30
2022-08-13T03:21:42.438Z,14.30
2022-08-13T03:24:22.446Z,14.30
2022-08-13T03:27:00.746Z,14.30
2022-08-13T03:29:57.895Z,14.30
2022-08-13T03:32:18.249Z,14.30
2022-08-13T03:34:59.811Z,14.20
2022-08-13T03:37:38.420Z,14.20
2022-08-13T03:40:06.537Z,14.20
2022-08-13T03:42:51.057Z,14.20
2022-08-13T03:45:23.263Z,14.20
2022-08-13T03:47:50.542Z,14.20
2022-08-13T03:50:18.930Z,14.20
2022-08-13T03:52:47.096Z,14.20
2022-08-13T03:55:15.229Z,14.20
2022-08-13T03:58:03.614Z,14.10
2022-08-13T04:00:50.808Z,14.10
2022-08-13T04:06:02.091Z,14.10
2022-08-13T04:08:36.115Z,14.10
2022-08-13T04:11:05.285Z,14.10
2022-08-13T04:14:01.286Z,14.10
2022-08-13T04:16:29.731Z,14.10
2022-08-13T04:18:59.762Z,14.10
2022-08-13T04:21:32.732Z,14.10
2022-08-13T04:24:03.340Z,14.10
2022-08-13T04:26:32.652Z,14.10
2022-08-13T04:29:02.994Z,14.10
2022-08-13T04:31:45.679Z,14.10
2022-08-13T04:34:31.899Z,14.10
2022-08-13T04:37:04.424Z,14.10
2022-08-13T04:40:05.541Z,14.10
2022-08-13T04:42:32.097Z,14.10
2022-08-13T04:45:01.720Z,14.10
2022-08-13T04:47:31.545Z,14.10
2022-08-13T04:49:58.372Z,14.10
2022-08-13T04:52:30.452Z,14.20
2022-08-13T04:54:57.971Z,14.20
2022-08-13T04:57:56.233Z,14.20
2022-08-13T05:00:13.824Z,14.20
2022-08-13T05:02:43.624Z,14.30
2022-08-13T05:05:13.851Z,14.30
2022-08-13T05:07:51.925Z,14.30
2022-08-13T05:10:30.512Z,14.30
2022-08-13T05:13:03.272Z,14.40
2022-08-13T05:15:42.337Z,14.40
2022-08-13T05:18:22.469Z,14.50
2022-08-13T05:20:58.664Z,14.50
2022-08-13T05:26:08.194Z,14.60
2022-08-13T05:26:57.075Z,14.60
2022-08-13T05:31:55.209Z,14.80
2022-08-13T05:34:26.779Z,14.80
2022-08-13T05:38:08.551Z,14.90
2022-08-13T05:39:48.017Z,14.90
2022-08-13T05:42:26.604Z,15.00
2022-08-13T05:44:57.916Z,15.10
2022-08-13T05:47:25.649Z,15.10
2022-08-13T05:49:57.730Z,15.20
2022-08-13T05:52:34.972Z,15.30
2022-08-13T05:56:10.339Z,15.40
2022-08-13T05:57:59.908Z,15.40
2022-08-13T06:00:46.227Z,15.50
2022-08-13T06:04:15.517Z,15.60
2022-08-13T06:06:24.692Z,15.70
2022-08-13T06:08:58.191Z,15.80
2022-08-13T06:12:25.432Z,15.90
2022-08-13T06:14:22.280Z,16.00
2022-08-13T06:16:55.761Z,16.10
2022-08-13T06:19:28.605Z,16.20
2022-08-13T06:22:04.232Z,16.30
2022-08-13T06:24:53.130Z,16.40
2022-08-13T06:27:54.198Z,16.50
2022-08-13T06:30:11.533Z,16.60
2022-08-13T06:33:58.778Z,16.70
2022-08-13T06:35:45.167Z,16.80
2022-08-13T06:38:21.345Z,17.00
2022-08-13T06:40:50.170Z,17.10
2022-08-13T06:43:20.980Z,17.20
2022-08-13T06:45:50.827Z,17.30
2022-08-13T06:48:34.142Z,17.40
2022-08-13T06:51:03.372Z,17.50
2022-08-13T06:54:22.155Z,17.60
2022-08-13T06:56:36.362Z,17.70
2022-08-13T06:59:13.158Z,17.90
2022-08-13T07:02:05.370Z,18.00
2022-08-13T07:04:34.248Z,18.20
2022-08-13T07:07:05.449Z,18.30
2022-08-13T07:09:42.418Z,18.40
2022-08-13T07:12:14.048Z,18.50
2022-08-13T07:14:46.738Z,18.60
2022-08-13T07:17:31.532Z,18.70
2022-08-13T07:20:23.999Z,18.90
2022-08-13T07:24:40.055Z,19.00
2022-08-13T07:25:56.912Z,19.20
2022-08-13T07:28:45.965Z,19.30
2022-08-13T07:31:23.037Z,19.50
2022-08-13T07:33:54.513Z,19.70
2022-08-13T07:36:29.745Z,19.80
2022-08-13T07:38:58.718Z,20.00
2022-08-13T07:41:28.181Z,20.10
2022-08-13T07:44:02.937Z,20.20
2022-08-13T07:46:35.978Z,20.40
2022-08-13T07:49:10.147Z,20.60
2022-08-13T07:51:38.625Z,20.80
2022-08-13T07:54:09.199Z,21.00
2022-08-13T07:56:38.024Z,21.20
2022-08-13T07:59:13.690Z,21.40
2022-08-13T08:02:19.638Z,21.70
2022-08-13T08:04:41.252Z,22.00
2022-08-13T08:07:15.428Z,22.20
2022-08-13T08:09:43.955Z,22.30
2022-08-13T08:12:34.525Z,22.60
2022-08-13T08:15:23.842Z,22.70
2022-08-13T08:18:16.026Z,22.90
2022-08-13T08:20:58.136Z,23.20
2022-08-13T08:23:48.794Z,23.50
2022-08-13T08:26:20.356Z,23.70
2022-08-13T08:28:51.126Z,23.80
2022-08-13T08:31:20.154Z,24.10
2022-08-13T08:33:54.071Z,24.30
2022-08-13T08:36:35.330Z,24.50
2022-08-13T08:39:24.622Z,24.40
2022-08-13T08:42:26.494Z,24.40
2022-08-13T08:44:55.360Z,24.50
2022-08-13T08:47:48.269Z,24.80
2022-08-13T08:50:26.947Z,24.90
2022-08-13T08:53:23.294Z,25.00
2022-08-13T08:56:07.472Z,25.10
2022-08-13T08:58:39.255Z,25.10
2022-08-13T09:01:09.516Z,25.30
2022-08-13T09:03:49.726Z,25.40
2022-08-13T09:06:34.394Z,25.60
2022-08-13T09:09:19.725Z,25.90
2022-08-13T09:11:55.800Z,25.80
2022-08-13T09:14:40.857Z,26.00
2022-08-13T09:17:12.957Z,26.10
2022-08-13T09:19:47.314Z,26.30
2022-08-13T09:22:26.165Z,26.70
2022-08-13T09:24:58.219Z,26.90
2022-08-13T09:27:27.460Z,26.90
2022-08-13T09:30:15.765Z,27.20
2022-08-13T09:32:50.825Z,27.30
2022-08-13T09:35:17.866Z,27.30
2022-08-13T09:37:54.082Z,27.30
2022-08-13T09:40:32.671Z,27.50
2022-08-13T09:43:45.390Z,27.50
2022-08-13T09:46:06.933Z,27.80
2022-08-13T09:48:46.491Z,27.80
2022-08-13T09:51:15.267Z,27.80
2022-08-13T09:54:06.752Z,28.00
2022-08-13T09:56:39.070Z,28.20
2022-08-13T09:59:09.125Z,28.20
2022-08-13T10:01:55.939Z,28.30
2022-08-13T10:04:24.366Z,28.40
2022-08-13T10:06:58.136Z,28.70
2022-08-13T10:09:29.652Z,29.00
2022-08-13T10:12:19.408Z,28.90
2022-08-13T10:14:55.199Z,29.10
2022-08-13T10:17:37.191Z,29.20
2022-08-13T10:20:30.641Z,29.50
2022-08-13T10:22:59.221Z,29.40
2022-08-13T10:25:35.030Z,29.50
2022-08-13T10:28:31.088Z,29.40
2022-08-13T10:31:49.551Z,29.40
2022-08-13T10:33:49.101Z,29.60
2022-08-13T10:36:18.299Z,29.70
2022-08-13T10:38:53.971Z,30.10
2022-08-13T10:41:22.257Z,30.40
2022-08-13T10:43:56.399Z,30.40
2022-08-13T10:46:28.026Z,30.30
2022-08-13T10:48:58.991Z,30.30
2022-08-13T10:51:30.672Z,30.50
2022-08-13T10:54:04.138Z,30.80
2022-08-13T10:56:33.238Z,30.70
2022-08-13T10:59:04.779Z,30.50
2022-08-13T11:01:33.219Z,30.50
2022-08-13T11:04:05.772Z,30.40
2022-08-13T11:06:37.768Z,30.40
2022-08-13T11:09:23.687Z,30.30
2022-08-13T11:11:54.706Z,30.10
2022-08-13T11:14:28.293Z,30.00
2022-08-13T11:17:02.954Z,30.00
2022-08-13T11:19:48.549Z,30.10
2022-08-13T11:22:26.230Z,30.20
2022-08-13T11:25:00.296Z,30.30
2022-08-13T11:27:50.975Z,30.30
2022-08-13T11:30:31.719Z,30.30
2022-08-13T11:33:05.893Z,30.30
2022-08-13T11:35:37.523Z,30.50
2022-08-13T11:38:09.453Z,30.50
2022-08-13T11:40:39.213Z,30.70
2022-08-13T11:43:12.838Z,30.70
2022-08-13T11:45:49.151Z,30.70
2022-08-13T11:48:19.442Z,30.60
2022-08-13T11:50:50.892Z,30.60
2022-08-13T11:53:20.656Z,30.80
2022-08-13T11:55:57.267Z,30.90
2022-08-13T11:58:46.479Z,31.10
2022-08-13T12:01:24.899Z,30.90
2022-08-13T12:06:50.151Z,30.40
2022-08-13T12:09:44.356Z,30.20
2022-08-13T12:12:11.546Z,30.40
2022-08-13T12:15:11.182Z,30.50
2022-08-13T12:17:51.932Z,30.50
2022-08-13T12:20:24.285Z,30.50
2022-08-13T12:22:57.822Z,30.60
2022-08-13T12:26:01.370Z,30.80
2022-08-13T12:28:27.625Z,30.20
2022-08-13T12:31:06.077Z,29.50
2022-08-13T12:33:39.363Z,29.10
2022-08-13T12:36:09.595Z,28.80
2022-08-13T12:38:37.940Z,28.50
2022-08-13T12:41:17.266Z,28.30
2022-08-13T12:44:10.027Z,28.20
2022-08-13T12:46:35.686Z,28.40
2022-08-13T12:49:11.678Z,28.60
2022-08-13T12:51:55.001Z,28.90
2022-08-13T12:54:40.336Z,28.80
2022-08-13T12:57:26.958Z,28.80
2022-08-13T13:00:03.235Z,28.90
2022-08-13T13:02:40.249Z,28.80
2022-08-13T13:05:16.934Z,28.80
2022-08-13T13:08:06.071Z,28.70
2022-08-13T13:10:37.911Z,28.50
2022-08-13T13:13:11.937Z,28.20
2022-08-13T13:18:52.287Z,28.40
2022-08-13T13:21:27.015Z,28.50
2022-08-13T13:24:01.401Z,28.50
2022-08-13T13:26:28.913Z,28.50
2022-08-13T13:28:58.896Z,28.70
2022-08-13T13:31:26.632Z,28.80
2022-08-13T13:33:55.534Z,28.90
2022-08-13T13:36:26.536Z,28.90
2022-08-13T13:38:55.401Z,28.90
2022-08-13T13:41:29.195Z,28.90
2022-08-13T13:44:37.874Z,28.80
2022-08-13T13:46:58.467Z,28.70
2022-08-13T13:49:25.853Z,28.70
2022-08-13T13:51:57.469Z,28.60
2022-08-13T13:54:26.185Z,28.60
2022-08-13T13:56:53.548Z,28.60
2022-08-13T13:59:36.169Z,28.60
2022-08-13T14:02:08.345Z,28.60
2022-08-13T14:04:52.668Z,28.60
2022-08-13T14:07:26.581Z,28.60
2022-08-13T14:10:10.320Z,28.50
2022-08-13T14:13:05.412Z,28.50
2022-08-13T14:15:26.347Z,28.50
2022-08-13T14:18:22.748Z,28.40
2022-08-13T14:20:47.851Z,28.40
2022-08-13T14:23:18.173Z,28.30
2022-08-13T14:25:55.734Z,28.30
2022-08-13T14:28:24.045Z,28.40
2022-08-13T14:30:51.578Z,28.30
2022-08-13T14:33:38.892Z,28.30
2022-08-13T14:36:06.286Z,28.30
2022-08-13T14:38:33.520Z,28.30
2022-08-13T14:41:17.225Z,28.30
2022-08-13T14:44:01.895Z,28.30
2022-08-13T14:46:32.103Z,28.30
2022-08-13T14:49:01.459Z,28.20
2022-08-13T14:51:53.060Z,28.20
2022-08-13T14:54:17.271Z,28.20
2022-08-13T14:56:49.675Z,28.10
2022-08-13T14:59:19.655Z,28.10
2022-08-13T15:01:49.408Z,28.10
2022-08-13T15:04:23.220Z,28.10
2022-08-13T15:06:54.794Z,28.00
2022-08-13T15:09:22.848Z,27.90
2022-08-13T15:11:51.764Z,27.90
2022-08-13T15:14:21.090Z,27.80
2022-08-13T15:16:48.507Z,27.80
2022-08-13T15:19:20.049Z,27.80
2022-08-13T15:21:50.746Z,27.80
2022-08-13T15:24:35.456Z,27.70
2022-08-13T15:27:11.466Z,27.70
2022-08-13T15:29:44.415Z,27.70
2022-08-13T15:32:56.249Z,27.70
2022-08-13T15:35:35.783Z,27.70
2022-08-13T15:38:25.043Z,27.70
2022-08-13T15:41:11.225Z,27.60
2022-08-13T15:43:40.684Z,27.60
2022-08-13T15:46:11.805Z,27.60
2022-08-13T15:48:40.498Z,27.60
2022-08-13T15:51:16.393Z,27.60
2022-08-13T15:53:54.447Z,27.60
2022-08-13T15:56:35.453Z,27.50
2022-08-13T15:59:06.056Z,27.50
2022-08-13T16:01:45.451Z,27.50
2022-08-13T16:04:44.630Z,27.40
2022-08-13T16:07:23.924Z,27.50
2022-08-13T16:09:52.702Z,27.50
2022-08-13T16:12:25.135Z,27.50
2022-08-13T16:14:59.676Z,27.50
2022-08-13T16:17:27.199Z,27.40
2022-08-13T16:19:55.717Z,27.40
2022-08-13T16:22:25.825Z,27.30
2022-08-13T16:24:59.938Z,27.20
2022-08-13T16:27:41.283Z,27.00
2022-08-13T16:30:18.603Z,26.90
2022-08-13T16:32:58.658Z,26.80
2022-08-13T16:35:28.575Z,26.70
2022-08-13T16:38:08.991Z,26.70
2022-08-13T16:40:51.386Z,26.60
2022-08-13T16:43:20.803Z,26.60
2022-08-13T16:45:51.967Z,26.50
2022-08-13T16:48:27.483Z,26.50
2022-08-13T16:51:00.910Z,26.40
2022-08-13T16:54:36.576Z,26.30
2022-08-13T16:56:15.500Z,26.20
2022-08-13T16:58:54.790Z,26.20
2022-08-13T17:01:26.302Z,26.20
2022-08-13T17:05:10.620Z,26.20
2022-08-13T17:07:22.098Z,26.20
2022-08-13T17:09:48.964Z,26.10
2022-08-13T17:12:26.125Z,26.10
2022-08-13T17:14:52.975Z,26.10
2022-08-13T17:17:21.414Z,26.10
2022-08-13T17:19:58.807Z,26.10
2022-08-13T17:22:29.434Z,26.00
2022-08-13T17:24:58.212Z,26.00
2022-08-13T17:27:25.228Z,25.90
2022-08-13T17:29:55.768Z,25.80
2022-08-13T17:32:31.604Z,25.80
2022-08-13T17:35:02.491Z,25.70
2022-08-13T17:37:59.336Z,25.60
2022-08-13T17:40:40.331Z,25.40
2022-08-13T17:44:09.659Z,25.30
2022-08-13T17:46:17.551Z,25.30
2022-08-13T17:49:06.708Z,25.20
2022-08-13T17:51:47.789Z,25.10
2022-08-13T17:54:26.805Z,25.10
2022-08-13T17:57:03.004Z,25.00
2022-08-13T17:59:47.277Z,25.00
2022-08-13T18:02:23.512Z,24.80
2022-08-13T18:04:59.375Z,24.70
2022-08-13T18:07:35.344Z,24.70
2022-08-13T18:10:13.314Z,24.60
2022-08-13T18:12:43.612Z,24.50
2022-08-13T18:17:03.321Z,24.40
2022-08-13T18:18:37.629Z,24.30
2022-08-13T18:20:57.536Z,24.20
2022-08-13T18:23:25.235Z,24.00
2022-08-13T18:25:55.395Z,23.80
2022-08-13T18:28:32.387Z,23.60
2022-08-13T18:31:00.998Z,23.50
2022-08-13T18:34:03.694Z,23.30
2022-08-13T18:36:19.330Z,23.20
2022-08-13T18:38:55.779Z,23.10
2022-08-13T18:41:23.851Z,23.00
2022-08-13T18:43:54.024Z,22.90
2022-08-13T18:46:38.356Z,22.70
2022-08-13T18:49:10.333Z,22.60
2022-08-13T18:51:40.421Z,22.50
2022-08-13T18:54:35.947Z,22.50
2022-08-13T18:56:58.491Z,22.40
2022-08-13T18:59:25.804Z,22.30
2022-08-13T19:01:56.255Z,22.20
2022-08-13T19:04:24.535Z,22.10
2022-08-13T19:06:54.622Z,22.00
2022-08-13T19:09:37.103Z,21.90
2022-08-13T19:12:08.218Z,21.90
2022-08-13T19:14:40.611Z,21.80
2022-08-13T19:17:10.747Z,21.70
2022-08-13T19:19:54.785Z,21.70
2022-08-13T19:22:23.695Z,21.60
2022-08-13T19:24:54.123Z,21.50
2022-08-13T19:27:35.024Z,21.40
2022-08-13T19:30:22.335Z,21.30
2022-08-13T19:32:50.746Z,21.20
2022-08-13T19:35:28.135Z,21.20
2022-08-13T19:37:59.102Z,21.10
2022-08-13T19:40:34.704Z,21.00
2022-08-13T19:43:08.535Z,21.00
2022-08-13T19:45:50.403Z,20.90
2022-08-13T19:48:37.868Z,20.90
2022-08-13T19:51:18.927Z,20.90
2022-08-13T19:53:54.155Z,20.90
2022-08-13T19:56:23.166Z,20.90
2022-08-13T19:59:06.488Z,20.80
2022-08-13T20:01:36.339Z,20.80
2022-08-13T20:04:13.604Z,20.70
2022-08-13T20:06:43.645Z,20.70
2022-08-13T20:09:11.924Z,20.70
2022-08-13T20:11:44.904Z,20.60
2022-08-13T20:14:18.748Z,20.70
2022-08-13T20:16:48.339Z,20.70
2022-08-13T20:19:19.939Z,20.70
2022-08-13T20:21:49.542Z,20.70
2022-08-13T20:24:36.235Z,20.80
2022-08-13T20:27:16.295Z,20.80
2022-08-13T20:29:55.708Z,20.80
2022-08-13T20:32:22.525Z,20.90
2022-08-13T20:34:55.955Z,20.90
2022-08-13T20:37:23.052Z,20.90
2022-08-13T20:39:55.464Z,21.00
2022-08-13T20:42:28.461Z,21.00
2022-08-13T20:45:21.267Z,21.10
2022-08-13T20:48:04.170Z,21.20
2022-08-13T20:50:36.340Z,21.10
2022-08-13T20:53:48.470Z,21.10
2022-08-13T20:56:41.641Z,21.10
2022-08-13T21:00:48.018Z,21.00
2022-08-13T21:01:53.778Z,20.90
2022-08-13T21:04:24.833Z,20.80
2022-08-13T21:06:56.595Z,20.70
2022-08-13T21:09:28.267Z,20.70
2022-08-13T21:12:08.675Z,20.60
2022-08-13T21:14:39.181Z,20.60
2022-08-13T21:17:11.260Z,20.50
2022-08-13T21:19:58.351Z,20.50
2022-08-13T21:22:31.996Z,20.50
2022-08-13T21:28:38.003Z,20.40
2022-08-13T21:30:33.567Z,20.40
2022-08-13T21:33:07.569Z,20.40
2022-08-13T21:35:41.009Z,20.50
2022-08-13T21:38:11.912Z,20.50
2022-08-13T21:40:41.026Z,20.50
2022-08-13T21:43:12.550Z,20.50
2022-08-13T21:45:43.344Z,20.50
2022-08-13T21:48:10.150Z,20.50
2022-08-13T21:50:38.769Z,20.50
2022-08-13T21:53:28.380Z,20.50
2022-08-13T21:55:53.141Z,20.50
2022-08-13T21:58:21.035Z,20.40
2022-08-13T22:00:48.946Z,20.40
2022-08-13T22:04:02.003Z,20.40
2022-08-13T22:06:16.329Z,20.40
2022-08-13T22:08:44.131Z,20.30
2022-08-13T22:11:11.438Z,20.30
2022-08-13T22:13:38.701Z,20.20
2022-08-13T22:16:06.061Z,20.20
2022-08-13T22:18:37.229Z,20.10
2022-08-13T22:21:06.945Z,20.00
2022-08-13T22:23:34.022Z,20.00
2022-08-13T22:26:00.998Z,19.90
2022-08-13T22:28:46.912Z,19.90
2022-08-13T22:31:16.015Z,19.80
2022-08-13T22:33:49.778Z,19.80
2022-08-13T22:36:32.241Z,19.80
2022-08-13T22:39:08.112Z,19.80
2022-08-13T22:41:41.268Z,19.80
2022-08-13T22:44:11.431Z,19.80
2022-08-13T22:46:39.311Z,19.70
2022-08-13T22:49:11.909Z,19.70
2022-08-13T22:51:38.776Z,19.70
2022-08-13T22:54:05.673Z,19.70
2022-08-13T22:56:36.218Z,19.70
2022-08-13T22:59:10.199Z,19.70
2022-08-13T23:01:39.575Z,19.60
2022-08-13T23:04:11.103Z,19.70
2022-08-13T23:06:48.390Z,19.60
2022-08-13T23:09:15.192Z,19.60
2022-08-13T23:11:42.350Z,19.60
2022-08-13T23:14:10.005Z,19.60
2022-08-13T23:16:36.956Z,19.50
2022-08-13T23:19:04.526Z,19.50
2022-08-13T23:21:31.533Z,19.50
2022-08-13T23:23:58.792Z,19.40
2022-08-13T23:26:30.063Z,19.30
2022-08-13T23:29:02.117Z,19.30
2022-08-13T23:31:32.495Z,19.20
2022-08-13T23:34:04.718Z,19.10
2022-08-13T23:36:36.708Z,19.00
2022-08-13T23:39:05.369Z,19.00
2022-08-13T23:41:36.185Z,18.90
2022-08-13T23:44:10.903Z,18.90
2022-08-13T23:46:52.534Z,18.80
2022-08-13T23:49:25.179Z,18.70
2022-08-13T23:51:56.151Z,18.70
2022-08-13T23:54:23.249Z,18.70
2022-08-13T23:57:00.105Z,18.60
2022-08-13T23:59:31.391Z,18.60
